createdAt,value
2018-08-11T00:00:14.505Z,96326.58
2018-08-11T00:02:49.460Z,96324.15
2018-08-11T00:05:24.249Z,96319.84
2018-08-11T00:07:59.042Z,96321.34
2018-08-11T00:10:34.244Z,96317.80
2018-08-11T00:13:09.149Z,96305.67
2018-08-11T00:15:54.000Z,96310.77
2018-08-11T00:18:28.533Z,96308.60
2018-08-11T00:21:03.126Z,96307.48
2018-08-11T00:23:38.365Z,96309.30
2018-08-11T00:26:13.060Z,96312.58
2018-08-11T00:28:48.517Z,96307.91
2018-08-11T00:31:32.062Z,96312.34
2018-08-11T00:34:08.122Z,96309.30
2018-08-11T00:36:43.304Z,96306.17
2018-08-11T00:39:18.213Z,96306.41
2018-08-11T00:41:53.209Z,96313.66
2018-08-11T00:44:28.805Z,96304.37
2018-08-11T00:47:04.432Z,96302.30
2018-08-11T00:49:39.326Z,96298.48
2018-08-11T00:52:14.249Z,96296.02
2018-08-11T00:54:48.837Z,96299.13
2018-08-11T00:57:23.412Z,96294.63
2018-08-11T00:59:58.261Z,96298.25
2018-08-11T01:02:33.032Z,96291.90
2018-08-11T01:05:09.728Z,96290.02
2018-08-11T01:07:45.295Z,96289.20
2018-08-11T01:10:20.480Z,96291.70
2018-08-11T01:12:55.777Z,96288.09
2018-08-11T01:15:30.374Z,96284.92
2018-08-11T01:18:04.865Z,96281.54
2018-08-11T01:20:39.766Z,96282.42
2018-08-11T01:23:14.788Z,96281.98
2018-08-11T01:25:49.551Z,96288.59
2018-08-11T01:28:25.184Z,96286.58
2018-08-11T01:31:00.640Z,96284.84
2018-08-11T01:33:35.761Z,96278.42
2018-08-11T01:36:10.869Z,96289.82
2018-08-11T01:38:45.948Z,96286.96
2018-08-11T01:41:20.229Z,96284.53
2018-08-11T01:43:54.899Z,96284.91
2018-08-11T01:46:30.379Z,96290.58
2018-08-11T01:49:04.755Z,96294.88
2018-08-11T01:51:39.635Z,96288.52
2018-08-11T01:54:14.749Z,96289.02
2018-08-11T01:56:49.287Z,96298.89
2018-08-11T01:59:24.165Z,96293.73
2018-08-11T02:01:58.704Z,96292.42
2018-08-11T02:04:33.021Z,96290.98
2018-08-11T02:07:07.826Z,96284.14
2018-08-11T02:09:42.556Z,96278.82
2018-08-11T02:12:17.152Z,96268.48
2018-08-11T02:14:52.127Z,96274.55
2018-08-11T02:17:26.943Z,96272.63
2018-08-11T02:20:01.437Z,96267.71
2018-08-11T02:22:36.229Z,96271.10
2018-08-11T02:25:11.128Z,96264.75
2018-08-11T02:27:45.808Z,96261.42
2018-08-11T02:30:20.830Z,96259.99
2018-08-11T02:32:55.732Z,96261.48
2018-08-11T02:35:30.379Z,96255.30
2018-08-11T02:38:05.128Z,96253.52
2018-08-11T02:40:39.548Z,96252.09
2018-08-11T02:43:13.981Z,96258.87
2018-08-11T02:45:48.282Z,96249.94
2018-08-11T02:48:22.600Z,96254.83
2018-08-11T02:50:57.236Z,96256.13
2018-08-11T02:53:31.612Z,96259.09
2018-08-11T02:56:06.672Z,96256.45
2018-08-11T02:58:40.998Z,96254.95
2018-08-11T03:01:15.679Z,96253.02
2018-08-11T03:03:50.024Z,96249.44
2018-08-11T03:06:25.047Z,96258.28
2018-08-11T03:08:59.572Z,96255.05
2018-08-11T03:11:34.196Z,96256.84
2018-08-11T03:14:09.344Z,96256.72
2018-08-11T03:16:43.984Z,96252.61
2018-08-11T03:19:19.747Z,96253.55
2018-08-11T03:22:00.244Z,96248.07
2018-08-11T03:24:35.189Z,96254.11
2018-08-11T03:27:11.139Z,96249.19
2018-08-11T03:29:46.404Z,96247.20
2018-08-11T03:32:20.925Z,96247.64
2018-08-11T03:34:55.975Z,96252.86
2018-08-11T03:37:30.872Z,96254.55
2018-08-11T03:40:07.044Z,96259.09
2018-08-11T03:42:42.978Z,96263.31
2018-08-11T03:45:17.240Z,96255.63
2018-08-11T03:47:51.691Z,96256.70
2018-08-11T03:50:25.951Z,96262.55
2018-08-11T03:53:00.252Z,96257.31
2018-08-11T03:55:34.908Z,96264.16
2018-08-11T03:58:09.917Z,96267.39
2018-08-11T04:00:44.640Z,96265.98
2018-08-11T04:03:19.167Z,96263.94
2018-08-11T04:05:54.333Z,96271.02
2018-08-11T04:08:28.964Z,96269.10
2018-08-11T04:11:03.543Z,96275.81
2018-08-11T04:13:38.165Z,96281.41
2018-08-11T04:16:12.655Z,96279.48
2018-08-11T04:18:47.408Z,96279.42
2018-08-11T04:21:22.115Z,96282.58
2018-08-11T04:23:56.812Z,96277.41
2018-08-11T04:26:31.520Z,96274.49
2018-08-11T04:29:06.305Z,96276.97
2018-08-11T04:31:41.131Z,96272.63
2018-08-11T04:34:16.125Z,96274.63
2018-08-11T04:36:50.745Z,96276.11
2018-08-11T04:39:25.166Z,96283.95
2018-08-11T04:42:00.380Z,96280.78
2018-08-11T04:44:34.997Z,96282.95
2018-08-11T04:47:09.864Z,96287.99
2018-08-11T04:49:44.172Z,96297.30
2018-08-11T04:52:18.872Z,96293.36
2018-08-11T04:54:53.326Z,96292.55
2018-08-11T04:57:27.712Z,96296.09
2018-08-11T05:00:02.472Z,96293.11
2018-08-11T05:02:36.801Z,96291.23
2018-08-11T05:05:11.249Z,96293.52
2018-08-11T05:07:45.672Z,96294.81
2018-08-11T05:10:20.028Z,96297.92
2018-08-11T05:12:54.499Z,96295.25
2018-08-11T05:15:28.911Z,96292.02
2018-08-11T05:18:03.910Z,96295.66
2018-08-11T05:20:38.469Z,96298.98
2018-08-11T05:23:12.909Z,96294.19
2018-08-11T05:25:47.532Z,96302.09
2018-08-11T05:28:22.644Z,96303.41
2018-08-11T05:30:57.608Z,96304.66
2018-08-11T05:33:32.011Z,96309.02
2018-08-11T05:36:07.659Z,96311.40
2018-08-11T05:38:41.960Z,96307.41
2018-08-11T05:41:16.399Z,96316.00
2018-08-11T05:43:51.235Z,96313.92
2018-08-11T05:46:25.571Z,96317.77
2018-08-11T05:48:59.887Z,96317.27
2018-08-11T05:51:34.408Z,96316.25
2018-08-11T05:54:09.041Z,96324.77
2018-08-11T05:56:43.767Z,96321.71
2018-08-11T05:59:18.528Z,96318.34
2018-08-11T06:01:53.911Z,96321.64
2018-08-11T06:04:28.241Z,96326.35
2018-08-11T06:07:02.976Z,96322.55
2018-08-11T06:09:37.586Z,96324.94
2018-08-11T06:12:11.971Z,96324.81
2018-08-11T06:14:46.424Z,96320.11
2018-08-11T06:17:20.888Z,96325.11
2018-08-11T06:19:55.496Z,96323.55
2018-08-11T06:22:30.520Z,96336.00
2018-08-11T06:25:06.744Z,96333.89
2018-08-11T06:27:41.232Z,96334.22
2018-08-11T06:30:15.912Z,96333.25
2018-08-11T06:32:50.596Z,96339.00
2018-08-11T06:35:25.500Z,96329.03
2018-08-11T06:37:59.866Z,96336.91
2018-08-11T06:40:34.647Z,96339.56
2018-08-11T06:43:10.140Z,96332.90
2018-08-11T06:45:44.486Z,96336.42
2018-08-11T06:48:19.764Z,96336.33
2018-08-11T06:50:54.150Z,96329.08
2018-08-11T06:53:28.844Z,96333.00
2018-08-11T06:56:03.348Z,96332.44
2018-08-11T06:58:37.838Z,96331.23
2018-08-11T07:01:12.187Z,96333.16
2018-08-11T07:03:46.788Z,96332.78
2018-08-11T07:06:21.347Z,96331.49
2018-08-11T07:08:56.001Z,96336.44
2018-08-11T07:11:30.427Z,96333.31
2018-08-11T07:14:06.900Z,96337.25
2018-08-11T07:16:41.395Z,96340.17
2018-08-11T07:19:16.028Z,96337.34
2018-08-11T07:21:51.021Z,96333.23
2018-08-11T07:24:25.934Z,96331.98
2018-08-11T07:27:00.935Z,96337.27
2018-08-11T07:29:35.688Z,96336.39
2018-08-11T07:32:10.764Z,96334.55
2018-08-11T07:34:45.520Z,96340.39
2018-08-11T07:37:20.127Z,96339.96
2018-08-11T07:39:54.767Z,96336.97
2018-08-11T07:42:29.523Z,96334.39
2018-08-11T07:45:04.319Z,96333.08
2018-08-11T07:47:39.370Z,96336.16
2018-08-11T07:50:25.220Z,96342.74
2018-08-11T07:52:59.788Z,96344.29
2018-08-11T07:55:34.614Z,96340.08
2018-08-11T07:58:09.313Z,96343.53
2018-08-11T08:00:44.804Z,96346.86
2018-08-11T08:03:19.636Z,96347.69
2018-08-11T08:05:54.309Z,96354.45
2018-08-11T08:08:29.127Z,96347.34
2018-08-11T08:11:03.412Z,96348.53
2018-08-11T08:13:38.469Z,96351.07
2018-08-11T08:16:13.185Z,96355.45
2018-08-11T08:18:47.482Z,96353.17
2018-08-11T08:21:22.352Z,96353.66
2018-08-11T08:23:57.077Z,96354.53
2018-08-11T08:26:32.475Z,96363.69
2018-08-11T08:29:07.447Z,96353.17
2018-08-11T08:31:42.616Z,96359.55
2018-08-11T08:34:17.308Z,96361.05
2018-08-11T08:36:52.172Z,96358.72
2018-08-11T08:39:26.675Z,96362.92
2018-08-11T08:42:01.453Z,96370.55
2018-08-11T08:44:35.957Z,96369.64
2018-08-11T08:47:10.821Z,96369.27
2018-08-11T08:49:45.314Z,96367.48
2018-08-11T08:52:19.803Z,96373.63
2018-08-11T08:54:54.227Z,96370.56
2018-08-11T08:57:28.868Z,96371.13
2018-08-11T09:00:03.659Z,96370.19
2018-08-11T09:02:38.652Z,96371.51
2018-08-11T09:05:13.622Z,96366.78
2018-08-11T09:07:47.967Z,96374.00
2018-08-11T09:10:22.428Z,96369.75
2018-08-11T09:12:56.841Z,96372.39
2018-08-11T09:15:31.704Z,96378.38
2018-08-11T09:18:06.085Z,96365.61
2018-08-11T09:20:40.373Z,96366.33
2018-08-11T09:23:15.734Z,96363.73
2018-08-11T09:25:50.451Z,96375.88
2018-08-11T09:28:24.859Z,96368.00
2018-08-11T09:30:59.305Z,96356.42
2018-08-11T09:33:34.509Z,96374.45
2018-08-11T09:36:09.640Z,96365.28
2018-08-11T09:38:44.368Z,96369.21
2018-08-11T09:41:19.224Z,96367.39
2018-08-11T09:47:09.036Z,96365.58
2018-08-11T09:49:46.174Z,96364.81
2018-08-11T09:52:23.687Z,96354.66
2018-08-11T09:54:58.645Z,96362.45
2018-08-11T09:57:32.939Z,96363.23
2018-08-11T10:00:09.493Z,96355.30
2018-08-11T10:02:44.924Z,96344.55
2018-08-11T10:05:23.253Z,96337.89
2018-08-11T10:07:57.801Z,96340.70
2018-08-11T10:10:32.217Z,96339.77
2018-08-11T10:13:07.692Z,96340.50
2018-08-11T10:15:42.724Z,96336.27
2018-08-11T10:18:17.332Z,96336.08
2018-08-11T10:20:52.121Z,96333.91
2018-08-11T10:23:27.119Z,96338.06
2018-08-11T10:26:02.363Z,96324.77
2018-08-11T10:28:37.363Z,96327.94
2018-08-11T10:31:12.691Z,96325.69
2018-08-11T10:33:47.519Z,96329.97
2018-08-11T10:36:22.044Z,96324.41
2018-08-11T10:38:57.500Z,96322.39
2018-08-11T10:41:32.227Z,96331.72
2018-08-11T10:44:07.732Z,96323.84
2018-08-11T10:46:42.636Z,96328.98
2018-08-11T10:49:17.089Z,96331.72
2018-08-11T10:51:51.872Z,96317.53
2018-08-11T10:54:26.256Z,96320.11
2018-08-11T10:57:01.035Z,96321.98
2018-08-11T10:59:35.696Z,96328.66
2018-08-11T11:02:10.700Z,96318.98
2018-08-11T11:04:45.184Z,96317.89
2018-08-11T11:07:20.227Z,96320.67
2018-08-11T11:09:55.484Z,96322.63
2018-08-11T11:12:30.059Z,96310.59
2018-08-11T11:15:05.942Z,96308.50
2018-08-11T11:17:41.335Z,96296.83
2018-08-11T11:20:15.999Z,96309.53
2018-08-11T11:22:50.394Z,96309.23
2018-08-11T11:25:56.519Z,96308.46
2018-08-11T11:28:34.250Z,96312.92
2018-08-11T11:31:08.997Z,96314.92
2018-08-11T11:39:48.369Z,96299.07
2018-08-11T11:42:23.223Z,96298.13
2018-08-11T11:44:57.649Z,96294.36
2018-08-11T11:47:31.928Z,96291.44
2018-08-11T11:50:06.452Z,96290.36
2018-08-11T11:52:41.344Z,96292.16
2018-08-11T11:55:16.171Z,96286.64
2018-08-11T11:57:51.063Z,96290.15
2018-08-11T12:00:25.686Z,96284.96
2018-08-11T12:03:01.188Z,96281.56
2018-08-11T12:05:36.235Z,96281.36
2018-08-11T12:08:11.395Z,96275.13
2018-08-11T12:10:46.221Z,96285.53
2018-08-11T12:13:20.584Z,96274.36
2018-08-11T12:15:54.964Z,96278.89
2018-08-11T12:18:30.149Z,96274.33
2018-08-11T12:21:04.428Z,96272.70
2018-08-11T12:23:39.275Z,96267.77
2018-08-11T12:26:14.468Z,96265.41
2018-08-11T12:28:49.283Z,96267.40
2018-08-11T12:31:24.128Z,96269.27
2018-08-11T12:33:58.575Z,96256.44
2018-08-11T12:36:33.820Z,96258.09
2018-08-11T12:39:09.605Z,96254.93
2018-08-11T12:41:44.789Z,96241.53
2018-08-11T12:44:23.183Z,96244.19
2018-08-11T12:47:10.792Z,96241.19
2018-08-11T12:49:45.307Z,96241.34
2018-08-11T12:52:23.899Z,96245.77
2018-08-11T12:54:59.068Z,96239.26
2018-08-11T12:57:34.809Z,96240.36
2018-08-11T13:00:11.631Z,96234.41
2018-08-11T13:02:46.615Z,96231.80
2018-08-11T13:05:21.635Z,96223.67
2018-08-11T13:07:56.132Z,96224.44
2018-08-11T13:10:30.785Z,96222.09
2018-08-11T13:13:05.492Z,96224.98
2018-08-11T13:15:42.019Z,96218.06
2018-08-11T13:18:16.556Z,96214.86
2018-08-11T13:20:51.671Z,96211.96
2018-08-11T13:23:25.973Z,96214.11
2018-08-11T13:26:00.588Z,96207.14
2018-08-11T13:28:34.979Z,96203.09
2018-08-11T13:31:09.875Z,96197.27
2018-08-11T13:33:44.443Z,96194.59
2018-08-11T13:36:18.879Z,96202.00
2018-08-11T13:38:53.188Z,96191.11
2018-08-11T13:41:32.142Z,96193.10
2018-08-11T13:44:06.932Z,96191.84
2018-08-11T13:46:41.440Z,96188.17
2018-08-11T13:49:16.093Z,96186.52
2018-08-11T13:51:50.641Z,96185.91
2018-08-11T13:54:25.077Z,96179.60
2018-08-11T13:56:59.872Z,96175.80
2018-08-11T13:59:34.348Z,96171.77
2018-08-11T14:02:08.848Z,96170.93
2018-08-11T14:04:43.232Z,96179.61
2018-08-11T14:07:17.943Z,96179.20
2018-08-11T14:09:52.920Z,96173.09
2018-08-11T14:12:27.287Z,96168.36
2018-08-11T14:15:01.807Z,96161.33
2018-08-11T14:17:36.581Z,96156.16
2018-08-11T14:20:11.716Z,96151.87
2018-08-11T14:22:46.644Z,96154.55
2018-08-11T14:25:21.373Z,96149.06
2018-08-11T14:27:56.283Z,96147.92
2018-08-11T14:30:30.769Z,96147.02
2018-08-11T14:33:05.224Z,96145.40
2018-08-11T14:35:39.732Z,96140.56
2018-08-11T14:38:14.588Z,96138.05
2018-08-11T14:40:49.405Z,96139.00
2018-08-11T14:43:23.820Z,96136.00
2018-08-11T14:45:58.101Z,96143.64
2018-08-11T14:48:32.499Z,96133.77
2018-08-11T14:51:07.189Z,96134.56
2018-08-11T14:53:41.719Z,96128.09
2018-08-11T14:56:16.368Z,96125.40
2018-08-11T14:58:51.630Z,96131.03
2018-08-11T15:01:26.428Z,96125.45
2018-08-11T15:04:01.144Z,96114.72
2018-08-11T15:06:35.848Z,96118.80
2018-08-11T15:09:11.256Z,96119.34
2018-08-11T15:11:45.558Z,96118.39
2018-08-11T15:14:20.424Z,96121.36
2018-08-11T15:16:55.212Z,96118.70
2018-08-11T15:19:30.044Z,96118.29
2018-08-11T15:22:04.372Z,96120.08
2018-08-11T15:24:38.779Z,96118.54
2018-08-11T15:27:13.421Z,96118.80
2018-08-11T15:29:48.648Z,96116.41
2018-08-11T15:32:23.465Z,96111.70
2018-08-11T15:34:58.213Z,96119.34
2018-08-11T15:37:32.664Z,96115.70
2018-08-11T15:40:07.880Z,96112.95
2018-08-11T15:42:42.263Z,96110.06
2018-08-11T15:45:17.228Z,96112.90
2018-08-11T15:47:52.082Z,96105.76
2018-08-11T15:50:26.801Z,96110.80
2018-08-11T15:53:01.092Z,96102.41
2018-08-11T15:55:35.523Z,96104.12
2018-08-11T15:58:10.512Z,96104.38
2018-08-11T16:00:45.204Z,96097.55
2018-08-11T16:03:20.399Z,96108.52
2018-08-11T16:05:54.816Z,96103.48
2018-08-11T16:08:29.232Z,96106.30
2018-08-11T16:11:03.871Z,96099.03
2018-08-11T16:13:38.147Z,96105.19
2018-08-11T16:16:12.576Z,96101.66
2018-08-11T16:18:47.457Z,96105.89
2018-08-11T16:21:21.835Z,96108.27
2018-08-11T16:23:56.461Z,96106.30
2018-08-11T16:26:30.909Z,96106.02
2018-08-11T16:29:06.178Z,96100.16
2018-08-11T16:31:40.828Z,96093.66
2018-08-11T16:34:15.684Z,96094.77
2018-08-11T16:36:50.194Z,96098.47
2018-08-11T16:39:25.120Z,96101.56
2018-08-11T16:41:59.833Z,96101.31
2018-08-11T16:44:34.833Z,96097.21
2018-08-11T16:47:09.312Z,96100.23
2018-08-11T16:49:44.115Z,96112.52
2018-08-11T16:52:18.597Z,96101.12
2018-08-11T16:54:53.065Z,96105.99
2018-08-11T16:57:27.383Z,96117.23
2018-08-11T17:00:02.241Z,96112.19
2018-08-11T17:02:37.177Z,96112.19
2018-08-11T17:05:12.296Z,96111.39
2018-08-11T17:07:47.124Z,96112.38
2018-08-11T17:10:21.681Z,96113.74
2018-08-11T17:12:56.150Z,96115.02
2018-08-11T17:15:30.923Z,96117.18
2018-08-11T17:18:05.389Z,96114.70
2018-08-11T17:20:39.877Z,96109.34
2018-08-11T17:23:14.627Z,96116.44
2018-08-11T17:25:50.386Z,96113.71
2018-08-11T17:28:24.865Z,96111.30
2018-08-11T17:30:59.488Z,96120.78
2018-08-11T17:33:33.782Z,96107.38
2018-08-11T17:36:08.944Z,96107.61
2018-08-11T17:38:43.947Z,96115.23
2018-08-11T17:41:19.536Z,96112.94
2018-08-11T17:43:54.264Z,96107.63
2018-08-11T17:46:28.818Z,96111.58
2018-08-11T17:49:03.585Z,96111.01
2018-08-11T17:51:38.727Z,96113.60
2018-08-11T17:54:13.436Z,96109.58
2018-08-11T17:56:47.960Z,96112.13
2018-08-11T17:59:22.449Z,96116.86
2018-08-11T18:01:57.152Z,96115.90
2018-08-11T18:04:31.870Z,96118.12
2018-08-11T18:07:06.315Z,96110.43
2018-08-11T18:09:40.692Z,96109.78
2018-08-11T18:12:15.724Z,96115.98
2018-08-11T18:14:50.244Z,96119.30
2018-08-11T18:17:24.956Z,96117.20
2018-08-11T18:20:00.121Z,96120.66
2018-08-11T18:22:34.488Z,96123.79
2018-08-11T18:25:09.348Z,96118.71
2018-08-11T18:27:44.289Z,96125.41
2018-08-11T18:30:19.361Z,96119.92
2018-08-11T18:32:54.032Z,96124.16
2018-08-11T18:35:28.608Z,96123.93
2018-08-11T18:38:03.409Z,96122.65
2018-08-11T18:40:37.973Z,96123.81
2018-08-11T18:43:12.867Z,96129.66
2018-08-11T18:45:47.192Z,96124.08
2018-08-11T18:48:22.169Z,96136.76
2018-08-11T18:50:56.786Z,96131.30
2018-08-11T18:53:31.796Z,96142.64
2018-08-11T18:56:06.276Z,96143.71
2018-08-11T18:58:41.128Z,96147.88
2018-08-11T19:01:16.106Z,96139.19
2018-08-11T19:03:51.609Z,96148.95
2018-08-11T19:06:26.510Z,96154.98
2018-08-11T19:09:01.216Z,96153.12
2018-08-11T19:11:35.555Z,96148.12
2018-08-11T19:14:10.736Z,96154.23
2018-08-11T19:16:45.355Z,96155.30
2018-08-11T19:19:19.799Z,96154.83
2018-08-11T19:21:54.824Z,96162.31
2018-08-11T19:24:29.435Z,96161.30
2018-08-11T19:27:04.189Z,96166.30
2018-08-11T19:29:38.707Z,96167.03
2018-08-11T19:32:13.388Z,96170.63
2018-08-11T19:34:47.859Z,96170.18
2018-08-11T19:37:22.324Z,96169.03
2018-08-11T19:39:56.735Z,96166.33
2018-08-11T19:42:31.200Z,96169.94
2018-08-11T19:45:07.760Z,96173.76
2018-08-11T19:47:42.892Z,96173.69
2018-08-11T19:50:17.700Z,96175.06
2018-08-11T19:52:52.723Z,96172.00
2018-08-11T19:55:27.438Z,96173.09
2018-08-11T19:58:02.484Z,96170.24
2018-08-11T20:00:36.973Z,96175.89
2018-08-11T20:03:11.528Z,96174.81
2018-08-11T20:05:46.417Z,96172.25
2018-08-11T20:08:21.256Z,96175.16
2018-08-11T20:10:56.033Z,96178.38
2018-08-11T20:13:31.369Z,96183.39
2018-08-11T20:16:06.661Z,96179.44
2018-08-11T20:18:41.356Z,96176.84
2018-08-11T20:21:16.072Z,96177.72
2018-08-11T20:23:50.932Z,96177.38
2018-08-11T20:26:25.248Z,96180.59
2018-08-11T20:28:59.664Z,96182.01
2018-08-11T20:31:34.112Z,96178.20
2018-08-11T20:34:09.048Z,96178.05
2018-08-11T20:36:43.444Z,96181.50
2018-08-11T20:39:18.500Z,96183.65
2018-08-11T20:41:53.331Z,96176.72
2018-08-11T20:44:27.756Z,96178.89
2018-08-11T20:47:02.184Z,96182.45
2018-08-11T20:49:36.851Z,96177.00
2018-08-11T20:52:11.748Z,96188.25
2018-08-11T20:54:46.572Z,96185.53
2018-08-11T20:57:21.103Z,96187.06
2018-08-11T20:59:55.558Z,96186.56
2018-08-11T21:02:29.969Z,96191.44
2018-08-11T21:05:06.915Z,96187.03
2018-08-11T21:07:41.776Z,96186.02
2018-08-11T21:10:16.552Z,96186.65
2018-08-11T21:12:50.959Z,96188.48
2018-08-11T21:15:25.976Z,96184.53
2018-08-11T21:18:01.372Z,96185.05
2018-08-11T21:20:36.216Z,96183.56
2018-08-11T21:23:10.541Z,96190.22
2018-08-11T21:25:44.965Z,96187.50
2018-08-11T21:28:19.370Z,96188.73
2018-08-11T21:30:54.129Z,96189.53
2018-08-11T21:33:28.872Z,96181.95
2018-08-11T21:36:04.080Z,96180.93
2018-08-11T21:38:38.759Z,96181.86
2018-08-11T21:41:13.856Z,96186.49
2018-08-11T21:43:48.819Z,96184.32
2018-08-11T21:46:23.587Z,96181.60
2018-08-11T21:48:58.364Z,96182.73
2018-08-11T21:51:33.073Z,96179.22
2018-08-11T21:54:08.040Z,96183.33
2018-08-11T21:56:42.926Z,96174.77
2018-08-11T21:59:17.733Z,96176.80
2018-08-11T22:01:52.501Z,96176.07
2018-08-11T22:04:32.633Z,96174.87
2018-08-11T22:07:08.371Z,96172.66
2018-08-11T22:09:42.995Z,96168.70
2018-08-11T22:12:17.744Z,96167.51
2018-08-11T22:14:52.433Z,96162.25
2018-08-11T22:17:26.952Z,96162.78
2018-08-11T22:20:01.646Z,96161.45
2018-08-11T22:22:36.004Z,96163.38
2018-08-11T22:25:11.636Z,96164.48
2018-08-11T22:27:46.424Z,96166.62
2018-08-11T22:30:21.112Z,96160.36
2018-08-11T22:32:55.471Z,96165.53
2018-08-11T22:35:30.283Z,96153.09
2018-08-11T22:38:04.775Z,96156.12
2018-08-11T22:40:39.563Z,96157.85
2018-08-11T22:43:14.068Z,96156.42
2018-08-11T22:45:48.902Z,96159.66
2018-08-11T22:48:23.764Z,96155.24
2018-08-11T22:50:58.815Z,96158.67
2018-08-11T22:53:33.436Z,96160.06
2018-08-11T22:56:08.274Z,96154.62
2018-08-11T22:58:42.751Z,96154.52
2018-08-11T23:01:17.528Z,96151.99
2018-08-11T23:03:52.336Z,96153.41
2018-08-11T23:06:27.412Z,96154.83
2018-08-11T23:09:02.904Z,96151.28
2018-08-11T23:11:37.324Z,96152.27
2018-08-11T23:14:11.840Z,96148.16
2018-08-11T23:16:46.503Z,96143.16
2018-08-11T23:19:21.008Z,96144.77
2018-08-11T23:21:55.436Z,96134.99
2018-08-11T23:24:30.252Z,96135.56
2018-08-11T23:27:04.831Z,96132.14
2018-08-11T23:29:39.602Z,96132.27
2018-08-11T23:32:13.873Z,96134.89
2018-08-11T23:34:48.284Z,96131.43
2018-08-11T23:37:23.702Z,96127.60
2018-08-11T23:39:58.620Z,96121.95
2018-08-11T23:42:34.076Z,96124.48
2018-08-11T23:45:11.144Z,96119.33
2018-08-11T23:47:45.752Z,96112.34
2018-08-11T23:50:20.147Z,96111.54
2018-08-11T23:52:54.536Z,96117.28
2018-08-11T23:55:29.000Z,96109.13
2018-08-11T23:58:03.428Z,96110.39
